sensor_id;sensor_type;location;lat;lon;timestamp;temperature;humidity
61979;DHT22;47938;48.176;16.414;2022-08-19T00:00:14;24.40;47.90
61979;DHT22;47938;48.176;16.414;2022-08-19T00:02:41;24.40;47.40
61979;DHT22;47938;48.176;16.414;2022-08-19T00:05:08;24.30;47.40
61979;DHT22;47938;48.176;16.414;2022-08-19T00:07:33;24.30;47.60
61979;DHT22;47938;48.176;16.414;2022-08-19T00:09:59;24.20;47.70
61979;DHT22;47938;48.176;16.414;2022-08-19T00:12:25;24.30;48.00
61979;DHT22;47938;48.176;16.414;2022-08-19T00:14:51;24.30;47.80
61979;DHT22;47938;48.176;16.414;2022-08-19T00:17:17;24.20;47.90
61979;DHT22;47938;48.176;16.414;2022-08-19T00:19:42;24.00;48.70
61979;DHT22;47938;48.176;16.414;2022-08-19T00:22:08;23.90;49.80
61979;DHT22;47938;48.176;16.414;2022-08-19T00:24:34;23.80;51.00
61979;DHT22;47938;48.176;16.414;2022-08-19T00:26:59;23.70;53.40
61979;DHT22;47938;48.176;16.414;2022-08-19T00:29:25;23.60;55.10
61979;DHT22;47938;48.176;16.414;2022-08-19T00:31:52;23.50;57.30
61979;DHT22;47938;48.176;16.414;2022-08-19T00:34:18;23.40;58.30
61979;DHT22;47938;48.176;16.414;2022-08-19T00:36:44;23.40;58.50
61979;DHT22;47938;48.176;16.414;2022-08-19T00:39:10;23.30;61.40
61979;DHT22;47938;48.176;16.414;2022-08-19T00:41:36;23.20;62.30
61979;DHT22;47938;48.176;16.414;2022-08-19T00:44:11;23.20;62.80
61979;DHT22;47938;48.176;16.414;2022-08-19T00:46:39;23.10;64.60
61979;DHT22;47938;48.176;16.414;2022-08-19T00:49:15;23.20;63.80
61979;DHT22;47938;48.176;16.414;2022-08-19T00:51:42;23.20;63.60
61979;DHT22;47938;48.176;16.414;2022-08-19T00:54:09;23.10;64.20
61979;DHT22;47938;48.176;16.414;2022-08-19T00:56:36;23.00;65.70
61979;DHT22;47938;48.176;16.414;2022-08-19T00:59:02;23.00;65.40
61979;DHT22;47938;48.176;16.414;2022-08-19T01:01:29;23.00;66.10
61979;DHT22;47938;48.176;16.414;2022-08-19T01:03:55;22.90;67.10
61979;DHT22;47938;48.176;16.414;2022-08-19T01:06:21;22.90;68.30
61979;DHT22;47938;48.176;16.414;2022-08-19T01:08:46;22.80;68.90
61979;DHT22;47938;48.176;16.414;2022-08-19T01:11:12;22.80;69.00
61979;DHT22;47938;48.176;16.414;2022-08-19T01:13:38;22.80;69.20
61979;DHT22;47938;48.176;16.414;2022-08-19T01:16:07;22.70;69.80
61979;DHT22;47938;48.176;16.414;2022-08-19T01:18:38;22.60;70.50
61979;DHT22;47938;48.176;16.414;2022-08-19T01:21:09;22.60;70.70
61979;DHT22;47938;48.176;16.414;2022-08-19T01:23:35;22.50;70.80
61979;DHT22;47938;48.176;16.414;2022-08-19T01:26:01;22.60;71.10
61979;DHT22;47938;48.176;16.414;2022-08-19T01:28:27;22.60;71.30
61979;DHT22;47938;48.176;16.414;2022-08-19T01:30:54;22.60;71.10
61979;DHT22;47938;48.176;16.414;2022-08-19T01:33:20;22.60;70.90
61979;DHT22;47938;48.176;16.414;2022-08-19T01:35:46;22.50;71.10
61979;DHT22;47938;48.176;16.414;2022-08-19T01:38:26;22.50;71.30
61979;DHT22;47938;48.176;16.414;2022-08-19T01:40:52;22.50;71.70
61979;DHT22;47938;48.176;16.414;2022-08-19T01:43:18;22.40;72.20
61979;DHT22;47938;48.176;16.414;2022-08-19T01:45:45;22.40;72.70
61979;DHT22;47938;48.176;16.414;2022-08-19T01:48:12;22.40;72.70
61979;DHT22;47938;48.176;16.414;2022-08-19T01:50:37;22.40;72.70
61979;DHT22;47938;48.176;16.414;2022-08-19T01:53:07;22.40;72.50
61979;DHT22;47938;48.176;16.414;2022-08-19T01:55:37;22.50;73.50
61979;DHT22;47938;48.176;16.414;2022-08-19T01:58:04;22.40;72.00
61979;DHT22;47938;48.176;16.414;2022-08-19T02:00:31;22.40;71.90
61979;DHT22;47938;48.176;16.414;2022-08-19T02:02:57;22.40;72.00
61979;DHT22;47938;48.176;16.414;2022-08-19T02:05:23;22.40;72.00
61979;DHT22;47938;48.176;16.414;2022-08-19T02:07:49;22.40;71.90
61979;DHT22;47938;48.176;16.414;2022-08-19T02:10:19;22.40;71.60
61979;DHT22;47938;48.176;16.414;2022-08-19T02:12:45;22.50;71.50
61979;DHT22;47938;48.176;16.414;2022-08-19T02:15:11;22.50;71.20
61979;DHT22;47938;48.176;16.414;2022-08-19T02:17:37;22.50;71.10
61979;DHT22;47938;48.176;16.414;2022-08-19T02:20:04;22.50;71.80
61979;DHT22;47938;48.176;16.414;2022-08-19T02:22:30;22.50;70.60
61979;DHT22;47938;48.176;16.414;2022-08-19T02:24:55;22.50;70.10
61979;DHT22;47938;48.176;16.414;2022-08-19T02:27:22;22.50;71.00
61979;DHT22;47938;48.176;16.414;2022-08-19T02:29:49;22.60;69.80
61979;DHT22;47938;48.176;16.414;2022-08-19T02:32:17;22.60;69.40
61979;DHT22;47938;48.176;16.414;2022-08-19T02:34:42;22.60;67.60
61979;DHT22;47938;48.176;16.414;2022-08-19T02:37:08;22.60;67.20
61979;DHT22;47938;48.176;16.414;2022-08-19T02:39:33;22.60;66.00
61979;DHT22;47938;48.176;16.414;2022-08-19T02:41:59;22.60;64.90
61979;DHT22;47938;48.176;16.414;2022-08-19T02:44:25;22.70;63.60
61979;DHT22;47938;48.176;16.414;2022-08-19T02:46:50;22.70;64.00
61979;DHT22;47938;48.176;16.414;2022-08-19T02:49:16;22.80;62.20
61979;DHT22;47938;48.176;16.414;2022-08-19T02:51:44;22.90;63.10
61979;DHT22;47938;48.176;16.414;2022-08-19T02:54:11;22.90;66.50
61979;DHT22;47938;48.176;16.414;2022-08-19T02:56:39;22.70;67.70
61979;DHT22;47938;48.176;16.414;2022-08-19T02:59:06;22.60;68.40
61979;DHT22;47938;48.176;16.414;2022-08-19T03:01:32;22.70;68.50
61979;DHT22;47938;48.176;16.414;2022-08-19T03:04:01;22.70;69.70
61979;DHT22;47938;48.176;16.414;2022-08-19T03:06:28;22.60;70.50
61979;DHT22;47938;48.176;16.414;2022-08-19T03:08:54;22.30;72.10
61979;DHT22;47938;48.176;16.414;2022-08-19T03:11:23;22.20;73.60
61979;DHT22;47938;48.176;16.414;2022-08-19T03:13:49;22.30;73.60
61979;DHT22;47938;48.176;16.414;2022-08-19T03:16:16;22.30;73.90
61979;DHT22;47938;48.176;16.414;2022-08-19T03:18:42;22.20;74.50
61979;DHT22;47938;48.176;16.414;2022-08-19T03:21:07;22.20;74.70
61979;DHT22;47938;48.176;16.414;2022-08-19T03:23:34;22.20;74.50
61979;DHT22;47938;48.176;16.414;2022-08-19T03:26:04;22.20;74.80
61979;DHT22;47938;48.176;16.414;2022-08-19T03:28:30;22.10;75.30
61979;DHT22;47938;48.176;16.414;2022-08-19T03:31:02;22.10;75.00
61979;DHT22;47938;48.176;16.414;2022-08-19T03:33:29;22.10;74.60
61979;DHT22;47938;48.176;16.414;2022-08-19T03:36:08;22.10;74.80
61979;DHT22;47938;48.176;16.414;2022-08-19T03:38:36;22.00;75.10
61979;DHT22;47938;48.176;16.414;2022-08-19T03:41:04;21.80;76.00
61979;DHT22;47938;48.176;16.414;2022-08-19T03:43:30;21.60;77.30
61979;DHT22;47938;48.176;16.414;2022-08-19T03:46:10;21.60;78.00
61979;DHT22;47938;48.176;16.414;2022-08-19T03:48:38;21.40;79.30
61979;DHT22;47938;48.176;16.414;2022-08-19T03:51:04;21.30;80.40
61979;DHT22;47938;48.176;16.414;2022-08-19T03:53:32;21.20;80.40
61979;DHT22;47938;48.176;16.414;2022-08-19T03:55:58;21.20;81.60
61979;DHT22;47938;48.176;16.414;2022-08-19T03:58:23;21.20;80.90
61979;DHT22;47938;48.176;16.414;2022-08-19T04:00:49;21.10;81.60
61979;DHT22;47938;48.176;16.414;2022-08-19T04:03:15;21.20;81.80
61979;DHT22;47938;48.176;16.414;2022-08-19T04:05:41;21.20;81.50
61979;DHT22;47938;48.176;16.414;2022-08-19T04:08:06;21.20;81.40
61979;DHT22;47938;48.176;16.414;2022-08-19T04:10:36;21.30;81.30
61979;DHT22;47938;48.176;16.414;2022-08-19T04:13:05;21.30;79.80
61979;DHT22;47938;48.176;16.414;2022-08-19T04:15:31;21.40;80.10
61979;DHT22;47938;48.176;16.414;2022-08-19T04:17:57;21.40;79.70
61979;DHT22;47938;48.176;16.414;2022-08-19T04:20:22;21.50;79.30
61979;DHT22;47938;48.176;16.414;2022-08-19T04:22:48;21.40;80.20
61979;DHT22;47938;48.176;16.414;2022-08-19T04:25:13;21.40;80.30
61979;DHT22;47938;48.176;16.414;2022-08-19T04:27:39;21.50;79.70
61979;DHT22;47938;48.176;16.414;2022-08-19T04:30:05;21.40;80.30
61979;DHT22;47938;48.176;16.414;2022-08-19T04:32:31;21.40;80.20
61979;DHT22;47938;48.176;16.414;2022-08-19T04:34:56;21.50;80.50
61979;DHT22;47938;48.176;16.414;2022-08-19T04:37:22;21.70;78.50
61979;DHT22;47938;48.176;16.414;2022-08-19T04:39:47;21.80;76.90
61979;DHT22;47938;48.176;16.414;2022-08-19T04:42:14;22.00;75.70
61979;DHT22;47938;48.176;16.414;2022-08-19T04:44:40;22.30;74.30
61979;DHT22;47938;48.176;16.414;2022-08-19T04:47:05;22.50;72.90
61979;DHT22;47938;48.176;16.414;2022-08-19T04:49:31;22.70;72.00
61979;DHT22;47938;48.176;16.414;2022-08-19T04:51:57;22.90;70.30
61979;DHT22;47938;48.176;16.414;2022-08-19T04:54:24;23.10;69.40
61979;DHT22;47938;48.176;16.414;2022-08-19T04:56:50;23.30;68.60
61979;DHT22;47938;48.176;16.414;2022-08-19T04:59:16;23.60;67.50
61979;DHT22;47938;48.176;16.414;2022-08-19T05:01:43;23.70;65.40
61979;DHT22;47938;48.176;16.414;2022-08-19T05:04:08;23.50;65.90
61979;DHT22;47938;48.176;16.414;2022-08-19T05:06:35;23.70;65.70
61979;DHT22;47938;48.176;16.414;2022-08-19T05:09:03;23.90;64.00
61979;DHT22;47938;48.176;16.414;2022-08-19T05:11:32;23.80;64.20
61979;DHT22;47938;48.176;16.414;2022-08-19T05:13:58;23.90;64.20
61979;DHT22;47938;48.176;16.414;2022-08-19T05:16:25;24.00;63.80
61979;DHT22;47938;48.176;16.414;2022-08-19T05:18:52;24.30;63.50
61979;DHT22;47938;48.176;16.414;2022-08-19T05:21:19;24.50;62.20
61979;DHT22;47938;48.176;16.414;2022-08-19T05:23:45;24.60;61.50
61979;DHT22;47938;48.176;16.414;2022-08-19T05:26:11;24.70;60.90
61979;DHT22;47938;48.176;16.414;2022-08-19T05:28:36;25.00;59.80
61979;DHT22;47938;48.176;16.414;2022-08-19T05:31:02;25.10;59.20
61979;DHT22;47938;48.176;16.414;2022-08-19T05:33:27;25.10;59.90
61979;DHT22;47938;48.176;16.414;2022-08-19T05:35:53;25.00;58.80
61979;DHT22;47938;48.176;16.414;2022-08-19T05:38:19;25.00;59.20
61979;DHT22;47938;48.176;16.414;2022-08-19T05:40:44;25.00;59.30
61979;DHT22;47938;48.176;16.414;2022-08-19T05:43:10;25.00;59.00
61979;DHT22;47938;48.176;16.414;2022-08-19T05:45:39;24.90;59.80
61979;DHT22;47938;48.176;16.414;2022-08-19T05:48:05;24.70;60.70
61979;DHT22;47938;48.176;16.414;2022-08-19T05:50:31;24.70;60.80
61979;DHT22;47938;48.176;16.414;2022-08-19T05:52:56;24.60;61.30
61979;DHT22;47938;48.176;16.414;2022-08-19T05:55:22;24.60;62.40
61979;DHT22;47938;48.176;16.414;2022-08-19T05:57:47;24.60;61.80
61979;DHT22;47938;48.176;16.414;2022-08-19T06:00:13;24.50;62.00
61979;DHT22;47938;48.176;16.414;2022-08-19T06:02:40;24.40;62.20
61979;DHT22;47938;48.176;16.414;2022-08-19T06:05:07;24.40;62.50
61979;DHT22;47938;48.176;16.414;2022-08-19T06:07:32;24.40;62.70
61979;DHT22;47938;48.176;16.414;2022-08-19T06:09:58;24.40;62.60
61979;DHT22;47938;48.176;16.414;2022-08-19T06:12:24;24.50;62.20
61979;DHT22;47938;48.176;16.414;2022-08-19T06:14:49;24.60;62.10
61979;DHT22;47938;48.176;16.414;2022-08-19T06:17:15;24.80;61.10
61979;DHT22;47938;48.176;16.414;2022-08-19T06:19:41;24.70;61.20
61979;DHT22;47938;48.176;16.414;2022-08-19T06:22:07;24.60;61.60
61979;DHT22;47938;48.176;16.414;2022-08-19T06:24:32;24.70;61.40
61979;DHT22;47938;48.176;16.414;2022-08-19T06:27:00;24.70;61.40
61979;DHT22;47938;48.176;16.414;2022-08-19T06:29:27;24.60;61.60
61979;DHT22;47938;48.176;16.414;2022-08-19T06:31:55;24.80;61.60
61979;DHT22;47938;48.176;16.414;2022-08-19T06:34:22;24.90;60.40
61979;DHT22;47938;48.176;16.414;2022-08-19T06:36:50;24.90;60.40
61979;DHT22;47938;48.176;16.414;2022-08-19T06:39:18;25.00;60.30
61979;DHT22;47938;48.176;16.414;2022-08-19T06:41:47;25.10;60.30
61979;DHT22;47938;48.176;16.414;2022-08-19T06:44:13;25.20;59.10
61979;DHT22;47938;48.176;16.414;2022-08-19T06:46:40;25.30;59.60
61979;DHT22;47938;48.176;16.414;2022-08-19T06:49:06;25.40;58.60
61979;DHT22;47938;48.176;16.414;2022-08-19T06:51:32;25.50;58.50
61979;DHT22;47938;48.176;16.414;2022-08-19T06:53:57;25.70;57.50
61979;DHT22;47938;48.176;16.414;2022-08-19T06:56:27;26.00;57.30
61979;DHT22;47938;48.176;16.414;2022-08-19T06:58:53;26.20;56.60
61979;DHT22;47938;48.176;16.414;2022-08-19T07:01:19;26.30;55.70
61979;DHT22;47938;48.176;16.414;2022-08-19T07:03:45;26.40;54.90
61979;DHT22;47938;48.176;16.414;2022-08-19T07:06:15;26.60;55.10
61979;DHT22;47938;48.176;16.414;2022-08-19T07:08:41;26.80;54.40
61979;DHT22;47938;48.176;16.414;2022-08-19T07:11:08;27.00;53.90
61979;DHT22;47938;48.176;16.414;2022-08-19T07:13:34;27.10;52.80
61979;DHT22;47938;48.176;16.414;2022-08-19T07:16:03;27.20;52.60
61979;DHT22;47938;48.176;16.414;2022-08-19T07:18:29;27.20;52.50
61979;DHT22;47938;48.176;16.414;2022-08-19T07:21:06;27.30;52.70
61979;DHT22;47938;48.176;16.414;2022-08-19T07:23:33;27.20;52.30
61979;DHT22;47938;48.176;16.414;2022-08-19T07:26:04;27.20;52.40
61979;DHT22;47938;48.176;16.414;2022-08-19T07:28:29;27.30;52.60
61979;DHT22;47938;48.176;16.414;2022-08-19T07:30:55;27.50;52.30
61979;DHT22;47938;48.176;16.414;2022-08-19T07:33:20;27.70;51.70
61979;DHT22;47938;48.176;16.414;2022-08-19T07:35:46;28.00;51.40
61979;DHT22;47938;48.176;16.414;2022-08-19T07:38:11;27.80;50.90
61979;DHT22;47938;48.176;16.414;2022-08-19T07:40:37;27.60;51.30
61979;DHT22;47938;48.176;16.414;2022-08-19T07:43:03;27.80;51.20
61979;DHT22;47938;48.176;16.414;2022-08-19T07:45:28;28.10;50.60
61979;DHT22;47938;48.176;16.414;2022-08-19T07:47:54;28.40;49.70
61979;DHT22;47938;48.176;16.414;2022-08-19T07:50:20;28.60;48.30
61979;DHT22;47938;48.176;16.414;2022-08-19T07:52:47;28.40;49.10
61979;DHT22;47938;48.176;16.414;2022-08-19T07:55:13;28.50;49.30
61979;DHT22;47938;48.176;16.414;2022-08-19T07:57:38;28.70;48.30
61979;DHT22;47938;48.176;16.414;2022-08-19T08:00:05;29.10;47.40
61979;DHT22;47938;48.176;16.414;2022-08-19T08:02:31;28.80;46.80
61979;DHT22;47938;48.176;16.414;2022-08-19T08:04:56;29.00;46.90
61979;DHT22;47938;48.176;16.414;2022-08-19T08:07:22;29.20;46.00
61979;DHT22;47938;48.176;16.414;2022-08-19T08:09:48;29.10;45.60
61979;DHT22;47938;48.176;16.414;2022-08-19T08:12:20;28.40;47.10
61979;DHT22;47938;48.176;16.414;2022-08-19T08:14:50;28.40;48.40
61979;DHT22;47938;48.176;16.414;2022-08-19T08:17:19;28.80;46.60
61979;DHT22;47938;48.176;16.414;2022-08-19T08:19:45;29.10;46.20
61979;DHT22;47938;48.176;16.414;2022-08-19T08:22:12;29.30;45.60
61979;DHT22;47938;48.176;16.414;2022-08-19T08:24:39;29.40;45.20
61979;DHT22;47938;48.176;16.414;2022-08-19T08:27:05;29.40;46.00
61979;DHT22;47938;48.176;16.414;2022-08-19T08:29:30;29.10;46.20
61979;DHT22;47938;48.176;16.414;2022-08-19T08:31:56;29.00;46.20
61979;DHT22;47938;48.176;16.414;2022-08-19T08:34:22;29.60;45.60
61979;DHT22;47938;48.176;16.414;2022-08-19T08:36:48;29.90;45.20
61979;DHT22;47938;48.176;16.414;2022-08-19T08:39:16;30.30;43.50
61979;DHT22;47938;48.176;16.414;2022-08-19T08:44:21;30.50;42.00
61979;DHT22;47938;48.176;16.414;2022-08-19T08:46:50;29.80;42.60
61979;DHT22;47938;48.176;16.414;2022-08-19T08:49:40;29.80;44.40
61979;DHT22;47938;48.176;16.414;2022-08-19T08:52:18;29.80;43.10
61979;DHT22;47938;48.176;16.414;2022-08-19T08:54:47;30.20;42.80
61979;DHT22;47938;48.176;16.414;2022-08-19T08:57:18;29.70;43.30
61979;DHT22;47938;48.176;16.414;2022-08-19T08:59:47;29.20;44.10
61979;DHT22;47938;48.176;16.414;2022-08-19T09:02:14;29.50;43.90
61979;DHT22;47938;48.176;16.414;2022-08-19T09:04:39;29.70;44.30
61979;DHT22;47938;48.176;16.414;2022-08-19T09:09:49;30.10;42.70
61979;DHT22;47938;48.176;16.414;2022-08-19T09:15:00;30.30;41.80
61979;DHT22;47938;48.176;16.414;2022-08-19T09:17:29;29.80;42.60
61979;DHT22;47938;48.176;16.414;2022-08-19T09:20:03;30.10;42.40
61979;DHT22;47938;48.176;16.414;2022-08-19T09:22:28;29.90;43.90
61979;DHT22;47938;48.176;16.414;2022-08-19T09:24:55;29.70;44.10
61979;DHT22;47938;48.176;16.414;2022-08-19T09:27:22;29.50;44.60
61979;DHT22;47938;48.176;16.414;2022-08-19T09:29:48;29.70;44.00
61979;DHT22;47938;48.176;16.414;2022-08-19T09:32:13;29.80;43.70
61979;DHT22;47938;48.176;16.414;2022-08-19T09:34:39;30.00;43.80
61979;DHT22;47938;48.176;16.414;2022-08-19T09:37:05;29.40;43.90
61979;DHT22;47938;48.176;16.414;2022-08-19T09:39:30;29.50;45.10
61979;DHT22;47938;48.176;16.414;2022-08-19T09:41:56;29.60;44.10
61979;DHT22;47938;48.176;16.414;2022-08-19T09:44:22;29.70;43.50
61979;DHT22;47938;48.176;16.414;2022-08-19T09:46:48;30.10;43.40
61979;DHT22;47938;48.176;16.414;2022-08-19T09:49:15;30.60;42.50
61979;DHT22;47938;48.176;16.414;2022-08-19T09:51:41;30.80;41.70
61979;DHT22;47938;48.176;16.414;2022-08-19T09:54:06;31.00;41.40
61979;DHT22;47938;48.176;16.414;2022-08-19T09:56:32;30.80;41.20
61979;DHT22;47938;48.176;16.414;2022-08-19T09:58:59;30.50;41.70
61979;DHT22;47938;48.176;16.414;2022-08-19T10:01:26;29.90;42.30
61979;DHT22;47938;48.176;16.414;2022-08-19T10:03:56;30.10;43.10
61979;DHT22;47938;48.176;16.414;2022-08-19T10:06:23;30.40;41.60
61979;DHT22;47938;48.176;16.414;2022-08-19T10:08:50;29.60;43.10
61979;DHT22;47938;48.176;16.414;2022-08-19T10:11:16;29.70;43.40
61979;DHT22;47938;48.176;16.414;2022-08-19T10:13:42;30.30;42.90
61979;DHT22;47938;48.176;16.414;2022-08-19T10:16:14;30.60;42.00
61979;DHT22;47938;48.176;16.414;2022-08-19T10:18:40;31.00;41.20
61979;DHT22;47938;48.176;16.414;2022-08-19T10:21:21;31.10;40.90
61979;DHT22;47938;48.176;16.414;2022-08-19T10:23:49;31.10;40.30
61979;DHT22;47938;48.176;16.414;2022-08-19T10:26:37;31.20;40.50
61979;DHT22;47938;48.176;16.414;2022-08-19T10:29:04;31.10;39.80
61979;DHT22;47938;48.176;16.414;2022-08-19T10:31:31;31.20;40.10
61979;DHT22;47938;48.176;16.414;2022-08-19T10:34:00;31.00;40.60
61979;DHT22;47938;48.176;16.414;2022-08-19T10:36:33;31.00;40.40
61979;DHT22;47938;48.176;16.414;2022-08-19T10:39:00;31.00;40.40
61979;DHT22;47938;48.176;16.414;2022-08-19T10:41:29;30.90;40.90
61979;DHT22;47938;48.176;16.414;2022-08-19T10:44:02;30.90;40.40
61979;DHT22;47938;48.176;16.414;2022-08-19T10:46:36;31.00;40.50
61979;DHT22;47938;48.176;16.414;2022-08-19T10:49:03;31.00;40.80
61979;DHT22;47938;48.176;16.414;2022-08-19T10:51:31;31.10;40.80
61979;DHT22;47938;48.176;16.414;2022-08-19T10:53:57;31.20;40.60
61979;DHT22;47938;48.176;16.414;2022-08-19T10:56:23;31.20;41.20
61979;DHT22;47938;48.176;16.414;2022-08-19T10:58:49;31.10;40.50
61979;DHT22;47938;48.176;16.414;2022-08-19T11:01:14;30.90;41.30
61979;DHT22;47938;48.176;16.414;2022-08-19T11:03:40;30.80;41.80
61979;DHT22;47938;48.176;16.414;2022-08-19T11:06:07;30.60;42.70
61979;DHT22;47938;48.176;16.414;2022-08-19T11:08:35;30.50;44.10
61979;DHT22;47938;48.176;16.414;2022-08-19T11:11:02;30.10;44.40
61979;DHT22;47938;48.176;16.414;2022-08-19T11:13:31;29.80;45.80
61979;DHT22;47938;48.176;16.414;2022-08-19T11:16:05;29.30;46.10
61979;DHT22;47938;48.176;16.414;2022-08-19T11:18:31;29.00;48.10
61979;DHT22;47938;48.176;16.414;2022-08-19T11:21:09;28.70;50.40
61979;DHT22;47938;48.176;16.414;2022-08-19T11:23:35;28.60;48.80
61979;DHT22;47938;48.176;16.414;2022-08-19T11:26:00;28.40;50.20
61979;DHT22;47938;48.176;16.414;2022-08-19T11:28:26;28.30;51.90
61979;DHT22;47938;48.176;16.414;2022-08-19T11:30:51;28.30;51.20
61979;DHT22;47938;48.176;16.414;2022-08-19T11:33:17;28.50;51.00
61979;DHT22;47938;48.176;16.414;2022-08-19T11:35:42;28.70;48.80
61979;DHT22;47938;48.176;16.414;2022-08-19T11:38:08;29.00;48.50
61979;DHT22;47938;48.176;16.414;2022-08-19T11:40:34;29.30;47.40
61979;DHT22;47938;48.176;16.414;2022-08-19T11:42:59;29.50;48.00
61979;DHT22;47938;48.176;16.414;2022-08-19T11:45:26;29.80;46.00
61979;DHT22;47938;48.176;16.414;2022-08-19T11:47:52;29.90;44.70
61979;DHT22;47938;48.176;16.414;2022-08-19T11:50:18;29.90;43.80
61979;DHT22;47938;48.176;16.414;2022-08-19T11:52:45;30.00;44.40
61979;DHT22;47938;48.176;16.414;2022-08-19T11:55:12;30.30;44.00
61979;DHT22;47938;48.176;16.414;2022-08-19T11:57:38;30.70;44.00
61979;DHT22;47938;48.176;16.414;2022-08-19T12:00:04;30.90;41.80
61979;DHT22;47938;48.176;16.414;2022-08-19T12:02:30;31.10;41.20
61979;DHT22;47938;48.176;16.414;2022-08-19T12:04:56;31.30;41.20
61979;DHT22;47938;48.176;16.414;2022-08-19T12:07:21;31.50;40.60
61979;DHT22;47938;48.176;16.414;2022-08-19T12:09:47;31.50;40.70
61979;DHT22;47938;48.176;16.414;2022-08-19T12:12:12;31.40;40.70
61979;DHT22;47938;48.176;16.414;2022-08-19T12:14:38;31.30;40.60
61979;DHT22;47938;48.176;16.414;2022-08-19T12:17:04;31.20;41.10
61979;DHT22;47938;48.176;16.414;2022-08-19T12:19:29;31.10;42.00
61979;DHT22;47938;48.176;16.414;2022-08-19T12:21:59;31.00;41.50
61979;DHT22;47938;48.176;16.414;2022-08-19T12:24:25;30.90;42.30
61979;DHT22;47938;48.176;16.414;2022-08-19T12:26:51;31.20;42.00
61979;DHT22;47938;48.176;16.414;2022-08-19T12:29:16;31.30;42.00
61979;DHT22;47938;48.176;16.414;2022-08-19T12:31:42;31.40;42.20
61979;DHT22;47938;48.176;16.414;2022-08-19T12:34:07;31.50;41.80
61979;DHT22;47938;48.176;16.414;2022-08-19T12:36:33;31.50;41.80
61979;DHT22;47938;48.176;16.414;2022-08-19T12:38:59;31.40;41.50
61979;DHT22;47938;48.176;16.414;2022-08-19T12:41:25;31.20;41.90
61979;DHT22;47938;48.176;16.414;2022-08-19T12:43:51;30.90;42.20
61979;DHT22;47938;48.176;16.414;2022-08-19T12:46:18;30.90;42.60
61979;DHT22;47938;48.176;16.414;2022-08-19T12:48:44;30.80;43.10
61979;DHT22;47938;48.176;16.414;2022-08-19T12:51:12;30.50;44.70
61979;DHT22;47938;48.176;16.414;2022-08-19T12:53:39;30.30;44.60
61979;DHT22;47938;48.176;16.414;2022-08-19T12:56:06;30.10;45.20
61979;DHT22;47938;48.176;16.414;2022-08-19T12:58:32;30.00;45.40
61979;DHT22;47938;48.176;16.414;2022-08-19T13:00:58;30.10;45.00
61979;DHT22;47938;48.176;16.414;2022-08-19T13:03:23;30.10;44.10
61979;DHT22;47938;48.176;16.414;2022-08-19T13:05:50;30.20;43.90
61979;DHT22;47938;48.176;16.414;2022-08-19T13:08:16;30.20;43.60
61979;DHT22;47938;48.176;16.414;2022-08-19T13:10:41;30.10;43.60
61979;DHT22;47938;48.176;16.414;2022-08-19T13:13:08;30.10;42.60
61979;DHT22;47938;48.176;16.414;2022-08-19T13:15:38;30.00;41.80
61979;DHT22;47938;48.176;16.414;2022-08-19T13:18:04;30.00;42.30
61979;DHT22;47938;48.176;16.414;2022-08-19T13:20:29;29.90;42.30
61979;DHT22;47938;48.176;16.414;2022-08-19T13:22:55;29.90;42.20
61979;DHT22;47938;48.176;16.414;2022-08-19T13:25:21;29.90;42.50
61979;DHT22;47938;48.176;16.414;2022-08-19T13:27:47;29.80;42.70
61979;DHT22;47938;48.176;16.414;2022-08-19T13:30:15;29.80;42.90
61979;DHT22;47938;48.176;16.414;2022-08-19T13:32:41;29.70;43.10
61979;DHT22;47938;48.176;16.414;2022-08-19T13:35:06;29.60;43.00
61979;DHT22;47938;48.176;16.414;2022-08-19T13:37:32;29.50;43.80
61979;DHT22;47938;48.176;16.414;2022-08-19T13:39:58;29.40;45.20
61979;DHT22;47938;48.176;16.414;2022-08-19T13:42:23;29.20;44.40
61979;DHT22;47938;48.176;16.414;2022-08-19T13:44:49;29.10;45.90
61979;DHT22;47938;48.176;16.414;2022-08-19T13:47:14;29.10;46.20
61979;DHT22;47938;48.176;16.414;2022-08-19T13:49:40;28.90;46.10
61979;DHT22;47938;48.176;16.414;2022-08-19T13:52:05;28.80;47.80
61979;DHT22;47938;48.176;16.414;2022-08-19T13:54:31;28.60;47.50
61979;DHT22;47938;48.176;16.414;2022-08-19T13:56:57;28.50;48.40
61979;DHT22;47938;48.176;16.414;2022-08-19T13:59:22;28.60;48.00
61979;DHT22;47938;48.176;16.414;2022-08-19T14:01:48;28.50;48.40
61979;DHT22;47938;48.176;16.414;2022-08-19T14:04:13;28.50;48.60
61979;DHT22;47938;48.176;16.414;2022-08-19T14:06:39;28.40;49.40
61979;DHT22;47938;48.176;16.414;2022-08-19T14:09:04;28.40;48.60
61979;DHT22;47938;48.176;16.414;2022-08-19T14:11:30;28.50;48.30
61979;DHT22;47938;48.176;16.414;2022-08-19T14:13:56;28.40;48.10
61979;DHT22;47938;48.176;16.414;2022-08-19T14:16:22;28.50;48.80
61979;DHT22;47938;48.176;16.414;2022-08-19T14:18:47;28.50;48.20
61979;DHT22;47938;48.176;16.414;2022-08-19T14:21:20;28.60;48.20
61979;DHT22;47938;48.176;16.414;2022-08-19T14:23:46;28.70;47.30
61979;DHT22;47938;48.176;16.414;2022-08-19T14:26:15;28.80;47.30
61979;DHT22;47938;48.176;16.414;2022-08-19T14:28:43;28.90;46.60
61979;DHT22;47938;48.176;16.414;2022-08-19T14:31:10;28.90;46.30
61979;DHT22;47938;48.176;16.414;2022-08-19T14:33:36;28.80;46.10
61979;DHT22;47938;48.176;16.414;2022-08-19T14:36:02;28.70;46.50
61979;DHT22;47938;48.176;16.414;2022-08-19T14:38:27;28.70;46.90
61979;DHT22;47938;48.176;16.414;2022-08-19T14:40:53;28.60;47.20
61979;DHT22;47938;48.176;16.414;2022-08-19T14:43:19;28.70;46.90
61979;DHT22;47938;48.176;16.414;2022-08-19T14:45:44;28.60;47.30
61979;DHT22;47938;48.176;16.414;2022-08-19T14:48:10;28.70;47.70
61979;DHT22;47938;48.176;16.414;2022-08-19T14:50:36;28.70;47.10
61979;DHT22;47938;48.176;16.414;2022-08-19T14:53:05;28.70;47.00
61979;DHT22;47938;48.176;16.414;2022-08-19T14:55:31;28.70;47.10
61979;DHT22;47938;48.176;16.414;2022-08-19T14:57:57;28.60;47.00
61979;DHT22;47938;48.176;16.414;2022-08-19T15:00:23;28.60;47.40
61979;DHT22;47938;48.176;16.414;2022-08-19T15:02:49;28.70;47.10
61979;DHT22;47938;48.176;16.414;2022-08-19T15:05:15;28.80;43.00
61979;DHT22;47938;48.176;16.414;2022-08-19T15:07:43;28.90;40.70
61979;DHT22;47938;48.176;16.414;2022-08-19T15:10:11;28.90;41.10
61979;DHT22;47938;48.176;16.414;2022-08-19T15:12:38;29.00;41.00
61979;DHT22;47938;48.176;16.414;2022-08-19T15:15:05;28.90;41.00
61979;DHT22;47938;48.176;16.414;2022-08-19T15:17:30;28.80;41.20
61979;DHT22;47938;48.176;16.414;2022-08-19T15:19:56;28.90;41.30